Time;durP1;ratioP1;P1;durP2;ratioP2;P2;SDS_P1;SDS_P2;PMS_P1;PMS_P2;Temp;Humidity;BMP_temperature;BMP_pressure;BME280_temperature;BME280_humidity;BME280_pressure;Samples;Min_cycle;Max_cycle;Signal;HPM_P1;HPM_P2
2023/09/10 00:01:43;;;;;;;0.00;0.00;;;;;;;17.26;100.00;101555.72;5094155;28;20032;-48
2023/09/10 00:04:09;;;;;;;0.00;0.00;;;;;;;17.15;100.00;101554.72;5093273;28;20020;-49
2023/09/10 00:06:34;;;;;;;0.10;0.10;;;;;;;17.09;100.00;101553.78;5093494;28;20173;-45
2023/09/10 00:09:00;;;;;;;0.10;0.10;;;;;;;17.06;100.00;101548.50;5094097;28;20035;-46
2023/09/10 00:11:25;;;;;;;0.00;0.00;;;;;;;17.13;100.00;101554.66;5092626;28;20425;-47
2023/09/10 00:13:51;;;;;;;0.10;0.10;;;;;;;17.04;100.00;101555.44;5093984;28;20020;-50
2023/09/10 00:16:16;;;;;;;0.00;0.00;;;;;;;17.04;100.00;101555.44;5093754;28;20020;-50
2023/09/10 00:18:41;;;;;;;0.10;0.10;;;;;;;17.04;100.00;101555.44;5092925;28;20418;-46
2023/09/10 00:21:07;;;;;;;0.10;0.10;;;;;;;17.02;100.00;101551.06;5093633;28;20028;-50
2023/09/10 00:23:32;;;;;;;0.05;0.05;;;;;;;17.03;100.00;101543.28;5093312;28;20123;-49
2023/09/10 00:25:57;;;;;;;0.00;0.00;;;;;;;17.04;100.00;101546.72;5092902;28;20115;-46
2023/09/10 00:28:22;;;;;;;0.10;0.10;;;;;;;17.00;100.00;101553.63;5093479;28;20032;-48
2023/09/10 00:30:52;;;;;;;0.10;0.10;;;;;;;16.97;100.00;101553.59;5092854;28;20434;-51
2023/09/10 00:33:17;;;;;;;0.10;0.10;;;;;;;16.99;100.00;101544.09;5092294;28;20028;-47
2023/09/10 00:35:43;;;;;;;0.10;0.10;;;;;;;17.05;100.00;101545.88;5093385;28;20028;-46
2023/09/10 00:38:08;;;;;;;0.10;0.10;;;;;;;17.00;100.00;101548.41;5093322;28;20024;-50
2023/09/10 00:40:33;;;;;;;0.00;0.00;;;;;;;17.03;100.00;101535.47;5092199;28;20464;-47
2023/09/10 00:42:59;;;;;;;0.10;0.10;;;;;;;17.00;100.00;101534.53;5093277;28;20467;-49
2023/09/10 00:45:24;;;;;;;0.10;0.10;;;;;;;17.00;100.00;101540.59;5092955;28;20032;-48
2023/09/10 00:47:49;;;;;;;0.00;0.00;;;;;;;16.99;100.00;101537.97;5092452;28;20031;-47
2023/09/10 00:50:15;;;;;;;0.00;0.00;;;;;;;17.00;100.00;101542.34;5093046;28;20016;-50
2023/09/10 00:52:49;;;;;;;0.00;0.00;;;;;;;17.05;100.00;101538.94;5092471;28;20092;-47
2023/09/10 00:55:15;;;;;;;0.00;0.00;;;;;;;17.02;100.00;101538.91;5092830;28;20032;-48
2023/09/10 00:57:40;;;;;;;0.00;0.00;;;;;;;17.00;100.00;101535.38;5093038;28;20024;-49
2023/09/10 01:00:10;;;;;;;0.00;0.00;;;;;;;17.01;100.00;101539.75;5092515;28;20039;-49
2023/09/10 01:02:38;;;;;;;0.00;0.00;;;;;;;17.00;100.00;101537.13;5092846;28;20035;-50
2023/09/10 01:05:03;;;;;;;0.00;0.00;;;;;;;17.04;100.00;101534.59;5093298;28;20020;-49
2023/09/10 01:07:29;;;;;;;0.00;0.00;;;;;;;17.04;100.00;101531.09;5092097;28;20084;-50
2023/09/10 01:09:54;;;;;;;0.05;0.05;;;;;;;17.04;100.00;101534.59;5092920;28;20020;-46
2023/09/10 01:13:04;;;;;;;0.00;0.00;;;;;;;17.07;100.00;101529.44;5092554;28;20043;-49
2023/09/10 01:15:40;;;;;;;0.10;0.10;;;;;;;17.04;100.00;101534.59;5088822;28;20056;-46
2023/09/10 01:18:14;;;;;;;0.00;0.00;;;;;;;17.06;100.00;101535.47;5093068;28;20016;-48
2023/09/10 01:20:45;;;;;;;0.00;0.00;;;;;;;17.01;100.00;101538.88;5093048;28;20032;-48
2023/09/10 01:23:19;;;;;;;0.00;0.00;;;;;;;17.01;100.00;101534.53;5092579;28;20126;-50
2023/09/10 01:25:46;;;;;;;0.05;0.05;;;;;;;17.01;100.00;101534.53;5092872;28;20020;-49
2023/09/10 01:28:11;;;;;;;0.00;0.00;;;;;;;17.00;100.00;101532.78;5092134;28;20020;-47
2023/09/10 01:30:37;;;;;;;0.00;0.00;;;;;;;17.00;100.00;101532.78;5092863;28;20085;-48
2023/09/10 01:33:14;;;;;;;0.00;0.00;;;;;;;17.00;100.00;101542.34;5093020;28;20054;-49
2023/09/10 01:35:50;;;;;;;0.10;0.10;;;;;;;16.99;100.00;101544.09;5092127;28;20099;-50
2023/09/10 01:38:33;;;;;;;0.00;0.00;;;;;;;16.95;100.00;101539.66;5092449;28;20757;-49
2023/09/10 01:41:10;;;;;;;0.03;0.03;;;;;;;16.93;100.00;101538.78;5092874;28;20024;-47
2023/09/10 01:43:37;;;;;;;0.10;0.10;;;;;;;16.90;100.00;101538.69;5095353;28;20028;-50
2023/09/10 01:46:03;;;;;;;0.10;0.10;;;;;;;16.90;100.00;101541.28;5096697;28;20032;-46
2023/09/10 01:48:29;;;;;;;0.10;0.10;;;;;;;16.84;100.00;101531.69;5096337;28;20479;-51
2023/09/10 01:50:55;;;;;;;0.00;0.00;;;;;;;16.88;100.00;101546.47;5095868;28;20040;-50
2023/09/10 01:53:20;;;;;;;0.00;0.00;;;;;;;16.87;100.00;101551.66;5096412;28;20060;-49
2023/09/10 01:55:45;;;;;;;0.10;0.10;;;;;;;16.88;100.00;101553.44;5096446;28;20081;-49
2023/09/10 01:58:13;;;;;;;0.00;0.00;;;;;;;16.84;100.00;101549.91;5095754;28;20109;-47
2023/09/10 02:00:39;;;;;;;0.10;0.10;;;;;;;16.82;100.00;101554.19;5096469;28;20016;-48
2023/09/10 02:03:04;;;;;;;0.10;0.10;;;;;;;16.79;100.00;101552.41;5095352;28;20483;-47
2023/09/10 02:05:30;;;;;;;0.00;0.00;;;;;;;16.81;100.00;101559.38;5095967;28;20105;-50
2023/09/10 02:07:55;;;;;;;0.00;0.00;;;;;;;16.79;100.00;101549.81;5096387;28;20161;-48
2023/09/10 02:10:20;;;;;;;0.00;0.00;;;;;;;16.81;100.00;101560.28;5095110;28;20031;-47
2023/09/10 02:12:46;;;;;;;0.08;0.08;;;;;;;16.81;100.00;101551.56;5096243;28;20031;-49
2023/09/10 02:15:11;;;;;;;0.10;0.10;;;;;;;16.79;100.00;101555.03;5096091;28;20024;-50
2023/09/10 02:17:37;;;;;;;0.10;0.10;;;;;;;16.84;100.00;101554.25;5095237;28;20081;-47
2023/09/10 02:20:09;;;;;;;0.00;0.00;;;;;;;16.78;100.00;101553.28;5096270;28;20024;-48
2023/09/10 02:22:35;;;;;;;0.00;0.00;;;;;;;16.78;100.00;101560.22;5095869;28;20107;-48
2023/09/10 02:25:02;;;;;;;0.00;0.00;;;;;;;16.78;100.00;101558.50;5095215;28;20055;-49
2023/09/10 02:27:28;;;;;;;0.10;0.10;;;;;;;16.78;100.00;101557.59;5095532;28;20026;-47
2023/09/10 02:29:53;;;;;;;0.10;0.10;;;;;;;16.76;100.00;101560.19;5095815;28;20028;-49
2023/09/10 02:32:18;;;;;;;0.00;0.00;;;;;;;16.75;100.00;101561.03;5094560;28;20077;-47
2023/09/10 02:34:43;;;;;;;0.00;0.00;;;;;;;16.76;100.00;101556.72;5095868;28;20020;-49
2023/09/10 02:37:09;;;;;;;0.00;0.00;;;;;;;16.68;100.00;101558.31;5095724;28;20372;-50
2023/09/10 02:39:34;;;;;;;0.10;0.10;;;;;;;16.68;100.00;101560.91;5094604;28;20060;-45
2023/09/10 02:41:59;;;;;;;0.08;0.08;;;;;;;16.68;100.00;101554.00;5095715;28;20036;-50
2023/09/10 02:44:25;;;;;;;0.10;0.10;;;;;;;16.70;100.00;101560.09;5095298;28;20028;-51
2023/09/10 02:46:50;;;;;;;0.00;0.00;;;;;;;16.71;100.00;101555.78;5094639;28;20065;-50
2023/09/10 02:49:16;;;;;;;0.10;0.10;;;;;;;16.72;100.00;101561.00;5095340;28;20027;-49
2023/09/10 02:51:42;;;;;;;0.00;0.00;;;;;;;16.70;100.00;101559.22;5095501;28;20460;-50
2023/09/10 02:54:07;;;;;;;0.03;0.03;;;;;;;16.71;100.00;101556.63;5093871;28;20024;-50
2023/09/10 02:56:32;;;;;;;0.10;0.10;;;;;;;16.70;100.00;101556.63;5094938;28;20056;-48
2023/09/10 02:58:57;;;;;;;0.00;0.00;;;;;;;16.69;100.00;101557.47;5095356;28;20031;-48
2023/09/10 03:01:23;;;;;;;0.00;0.00;;;;;;;16.64;100.00;101562.59;5094072;28;20494;-49
2023/09/10 03:03:49;;;;;;;0.03;0.03;;;;;;;16.65;100.00;101553.06;5095445;28;20077;-50
2023/09/10 03:06:14;;;;;;;0.00;0.00;;;;;;;16.58;100.00;101560.78;5094578;28;20024;-49
2023/09/10 03:08:41;;;;;;;0.00;0.00;;;;;;;16.60;100.00;101559.09;5094871;28;20028;-49
2023/09/10 03:11:06;;;;;;;0.10;0.10;;;;;;;16.55;100.00;101563.34;5095146;28;20035;-48
2023/09/10 03:13:32;;;;;;;0.03;0.03;;;;;;;16.53;100.00;101561.56;5094157;28;20115;-50
2023/09/10 03:15:57;;;;;;;0.00;0.00;;;;;;;16.55;100.00;101570.25;5094872;28;20020;-50
2023/09/10 03:18:22;;;;;;;0.00;0.00;;;;;;;16.55;100.00;101557.25;5094804;28;20490;-49
2023/09/10 03:20:48;;;;;;;0.10;0.10;;;;;;;16.55;100.00;101555.53;5094309;28;20030;-46
2023/09/10 03:23:13;;;;;;;0.10;0.10;;;;;;;16.54;100.00;101560.69;5094615;28;20391;-50
2023/09/10 03:25:39;;;;;;;0.00;0.00;;;;;;;16.51;100.00;101553.72;5094685;28;20487;-50
2023/09/10 03:28:05;;;;;;;0.03;0.03;;;;;;;16.46;100.00;101551.06;5094096;28;20024;-49
2023/09/10 03:30:30;;;;;;;0.10;0.10;;;;;;;16.45;100.00;101553.63;5094282;28;20035;-49
2023/09/10 03:32:56;;;;;;;0.00;0.00;;;;;;;16.49;100.00;101551.94;5094764;28;20091;-50
2023/09/10 03:35:21;;;;;;;0.10;0.10;;;;;;;16.45;100.00;101548.44;5093636;28;20369;-51
2023/09/10 03:37:47;;;;;;;0.10;0.10;;;;;;;16.45;100.00;101548.44;5094427;28;20356;-49
2023/09/10 03:40:12;;;;;;;0.00;0.00;;;;;;;16.42;100.00;101544.06;5094172;28;20032;-51
2023/09/10 03:42:37;;;;;;;0.10;0.10;;;;;;;16.43;100.00;101548.38;5093740;28;20485;-51
2023/09/10 03:45:03;;;;;;;0.10;0.10;;;;;;;16.39;100.00;101549.19;5094332;28;20032;-50
2023/09/10 03:47:29;;;;;;;0.00;0.00;;;;;;;16.35;100.00;101547.38;5094329;28;20024;-50
2023/09/10 03:49:54;;;;;;;0.00;0.00;;;;;;;16.38;100.00;101555.22;5093654;28;20020;-49
2023/09/10 03:52:21;;;;;;;0.10;0.10;;;;;;;16.32;100.00;101549.94;5093697;28;20036;-49
2023/09/10 03:54:47;;;;;;;0.00;0.00;;;;;;;16.33;100.00;101543.88;5094364;28;20028;-50
2023/09/10 03:57:13;;;;;;;0.10;0.10;;;;;;;16.35;100.00;101536.13;5092852;28;20140;-48
2023/09/10 03:59:38;;;;;;;0.10;0.10;;;;;;;16.32;100.00;101544.75;5094205;28;20107;-50
2023/09/10 04:02:04;;;;;;;0.00;0.00;;;;;;;16.37;100.00;101543.09;5094357;28;20153;-47
2023/09/10 04:04:30;;;;;;;0.10;0.10;;;;;;;16.35;100.00;101538.72;5092993;28;20043;-47
2023/09/10 04:06:55;;;;;;;0.00;0.00;;;;;;;16.32;100.00;101534.34;5094077;28;20099;-47
2023/09/10 04:09:21;;;;;;;0.10;0.10;;;;;;;16.29;100.00;101537.75;5093674;28;20157;-49
2023/09/10 04:11:49;;;;;;;0.08;0.08;;;;;;;16.28;100.00;101529.91;5093033;28;20032;-49
2023/09/10 04:14:14;;;;;;;0.10;0.10;;;;;;;16.29;100.00;101535.16;5093378;28;20476;-49
2023/09/10 04:16:39;;;;;;;0.10;0.10;;;;;;;16.22;100.00;101535.91;5092889;28;20023;-47
2023/09/10 04:19:04;;;;;;;0.03;0.03;;;;;;;16.27;100.00;101536.00;5093974;28;20107;-48
2023/09/10 04:21:30;;;;;;;0.03;0.03;;;;;;;16.21;100.00;101531.53;5093426;28;20030;-50
2023/09/10 04:23:55;;;;;;;0.10;0.10;;;;;;;16.21;100.00;101535.88;5093026;28;20032;-49
2023/09/10 04:26:20;;;;;;;0.10;0.10;;;;;;;16.23;100.00;101537.66;5093358;28;20034;-50
2023/09/10 04:28:46;;;;;;;0.10;0.10;;;;;;;16.26;100.00;101531.63;5093602;28;20097;-50
2023/09/10 04:31:16;;;;;;;0.00;0.00;;;;;;;16.27;100.00;101533.38;5092893;28;20104;-50
2023/09/10 04:33:42;;;;;;;0.00;0.00;;;;;;;16.24;100.00;101530.72;5093624;28;20031;-48
2023/09/10 04:36:08;;;;;;;0.10;0.10;;;;;;;16.23;100.00;101537.66;5093666;28;20024;-46
2023/09/10 04:38:33;;;;;;;0.00;0.00;;;;;;;16.27;100.00;101536.00;5092460;28;20120;-48
2023/09/10 04:40:59;;;;;;;0.03;0.03;;;;;;;16.16;100.00;101534.91;5093622;28;20035;-47
2023/09/10 04:43:24;;;;;;;0.10;0.10;;;;;;;16.19;100.00;101529.75;5092991;28;20031;-45
2023/09/10 04:45:49;;;;;;;0.00;0.00;;;;;;;16.23;100.00;101541.97;5092756;28;20474;-50
2023/09/10 04:48:15;;;;;;;0.00;0.00;;;;;;;16.26;100.00;101536.84;5093129;28;20507;-47
2023/09/10 04:50:40;;;;;;;0.00;0.00;;;;;;;16.19;100.00;101537.56;5093340;28;20523;-47
2023/09/10 04:53:06;;;;;;;0.00;0.00;;;;;;;16.16;100.00;101529.72;5092420;28;20589;-49
2023/09/10 04:55:31;;;;;;;0.00;0.00;;;;;;;16.20;100.00;101536.72;5092555;28;20048;-50
2023/09/10 04:57:56;;;;;;;0.10;0.10;;;;;;;16.18;100.00;101534.09;5093036;28;20027;-45
2023/09/10 05:00:22;;;;;;;0.08;0.08;;;;;;;16.18;100.00;101528.00;5091883;28;20103;-47
2023/09/10 05:02:47;;;;;;;0.00;0.00;;;;;;;16.17;100.00;101540.13;5093124;28;20120;-45
2023/09/10 05:05:12;;;;;;;0.10;0.10;;;;;;;16.21;100.00;101543.69;5092854;28;20024;-46
2023/09/10 05:07:38;;;;;;;0.00;0.00;;;;;;;16.18;100.00;101543.59;5092236;28;20023;-47
2023/09/10 05:10:03;;;;;;;0.10;0.10;;;;;;;16.21;100.00;101538.47;5092996;28;20024;-47
2023/09/10 05:12:28;;;;;;;0.10;0.10;;;;;;;16.18;100.00;101541.91;5092540;28;20533;-50
2023/09/10 05:14:54;;;;;;;0.10;0.10;;;;;;;16.21;100.00;101544.53;5092330;28;20103;-46
2023/09/10 05:17:19;;;;;;;0.00;0.00;;;;;;;16.22;100.00;101550.63;5096399;28;20015;-46
2023/09/10 05:19:46;;;;;;;0.08;0.08;;;;;;;16.21;100.00;101548.88;5099829;28;20430;-45
2023/09/10 05:22:12;;;;;;;0.00;0.00;;;;;;;16.20;100.00;101547.13;5098614;28;20051;-45
2023/09/10 05:24:37;;;;;;;0.10;0.10;;;;;;;16.19;100.00;101548.84;5099692;28;20385;-51
2023/09/10 05:27:03;;;;;;;0.10;0.10;;;;;;;16.23;100.00;101554.97;5098726;28;20023;-45
2023/09/10 05:29:28;;;;;;;0.00;0.00;;;;;;;16.28;100.00;101555.91;5099147;28;20468;-48
2023/09/10 05:31:53;;;;;;;0.00;0.00;;;;;;;16.28;100.00;101550.72;5099404;28;20028;-48
2023/09/10 05:34:19;;;;;;;0.10;0.10;;;;;;;16.19;100.00;101556.66;5098540;28;20032;-48
2023/09/10 05:36:44;;;;;;;0.00;0.00;;;;;;;16.30;100.00;101552.50;5099732;28;20051;-49
2023/09/10 05:39:10;;;;;;;0.00;0.00;;;;;;;16.32;100.00;101551.66;5099882;28;20157;-50
2023/09/10 05:41:35;;;;;;;0.10;0.10;;;;;;;16.31;100.00;101558.59;5098451;28;20035;-50
2023/09/10 05:44:00;;;;;;;0.00;0.00;;;;;;;16.37;100.00;101558.72;5099482;28;20043;-46
2023/09/10 05:46:26;;;;;;;0.03;0.03;;;;;;;16.40;100.00;101556.16;5099000;28;20103;-49
2023/09/10 05:48:51;;;;;;;0.00;0.00;;;;;;;16.43;100.00;101558.78;5098492;28;20031;-50
2023/09/10 05:51:16;;;;;;;0.00;0.00;;;;;;;16.51;100.00;101558.03;5098927;28;20028;-50
2023/09/10 05:53:42;;;;;;;0.10;0.10;;;;;;;16.50;100.00;101562.38;5099376;28;20036;-47
2023/09/10 05:56:08;;;;;;;0.05;0.05;;;;;;;16.55;100.00;101555.53;5098342;28;20040;-51
2023/09/10 05:58:33;;;;;;;0.10;0.10;;;;;;;16.52;100.00;101567.63;5098895;28;20031;-48
2023/09/10 06:00:58;;;;;;;0.15;0.10;;;;;;;16.58;100.00;101562.50;5099203;28;20020;-51
2023/09/10 06:03:24;;;;;;;0.10;0.10;;;;;;;16.62;100.00;101565.16;5098317;28;20027;-46
2023/09/10 06:05:50;;;;;;;0.00;0.00;;;;;;;16.72;100.00;101573.13;5099339;28;20117;-51
2023/09/10 06:08:15;;;;;;;0.00;0.00;;;;;;;16.75;100.00;101574.06;5098979;28;20451;-45
2023/09/10 06:10:41;;;;;;;0.10;0.10;;;;;;;16.80;100.00;101571.53;5098370;28;20024;-50
2023/09/10 06:13:06;;;;;;;0.10;0.10;;;;;;;16.89;100.00;101573.41;5099046;28;20395;-50
2023/09/10 06:15:31;;;;;;;0.00;0.00;;;;;;;16.95;100.00;101581.31;5098799;28;20441;-51
2023/09/10 06:17:57;;;;;;;0.10;0.10;;;;;;;17.03;100.00;101584.94;5098455;28;20036;-50
2023/09/10 06:20:22;;;;;;;0.00;0.00;;;;;;;17.16;100.00;101579.88;5098747;28;20105;-51
2023/09/10 06:22:47;;;;;;;0.00;0.00;;;;;;;17.23;100.00;101577.38;5099080;28;20032;-49
2023/09/10 06:25:13;;;;;;;0.10;0.10;;;;;;;17.32;100.00;101576.63;5097974;28;20035;-51
2023/09/10 06:27:38;;;;;;;0.00;0.00;;;;;;;17.43;100.00;101582.88;5098632;28;20024;-51
2023/09/10 06:30:04;;;;;;;0.00;0.00;;;;;;;17.53;100.00;101590.81;5095023;28;20115;-51
2023/09/10 06:32:29;;;;;;;0.05;0.05;;;;;;;17.62;100.00;101583.09;5094638;28;20064;-46
2023/09/10 06:34:54;;;;;;;0.00;0.00;;;;;;;17.76;100.00;101578.91;5095896;28;20024;-51
2023/09/10 06:37:20;;;;;;;0.05;0.05;;;;;;;17.84;100.00;101592.03;5094699;28;20031;-46
2023/09/10 06:39:45;;;;;;;0.10;0.10;;;;;;;17.94;100.00;101599.13;5095678;28;20027;-51
2023/09/10 06:42:12;;;;;;;0.00;0.00;;;;;;;18.06;100.00;101598.44;5095646;28;20524;-49
2023/09/10 06:44:38;;;;;;;0.00;0.00;;;;;;;18.20;100.00;101590.72;5095001;28;20414;-45
2023/09/10 06:47:04;;;;;;;0.00;0.00;;;;;;;18.33;100.00;101591.72;5095784;28;20020;-50
2023/09/10 06:49:29;;;;;;;0.00;0.00;;;;;;;18.48;100.00;101595.34;5095355;28;20012;-51
2023/09/10 06:51:56;;;;;;;0.08;0.08;;;;;;;18.63;100.00;101600.69;5094530;28;20089;-47
2023/09/10 06:54:21;;;;;;;0.00;0.00;;;;;;;18.79;100.00;101600.81;5095140;28;20020;-49
2023/09/10 06:56:47;;;;;;;0.00;0.00;;;;;;;18.95;100.00;101601.81;5095151;28;20040;-49
2023/09/10 06:59:12;;;;;;;0.10;0.10;;;;;;;19.12;100.00;101599.31;5094475;28;20080;-49
2023/09/10 07:01:38;;;;;;;0.00;0.00;;;;;;;19.24;100.00;101599.41;5095423;28;20016;-45
2023/09/10 07:04:22;;;;;;;0.00;0.00;;;;;;;19.38;100.00;101605.56;5095090;28;20038;-51
2023/09/10 07:06:49;;;;;;;0.00;0.00;;;;;;;19.53;100.00;101607.38;5094526;28;20024;-48
2023/09/10 07:09:22;;;;;;;0.10;0.10;;;;;;;19.64;100.00;101612.66;5094719;28;20124;-50
2023/09/10 07:11:48;;;;;;;0.00;0.00;;;;;;;19.85;100.00;101613.66;5095147;28;20028;-48
2023/09/10 07:14:13;;;;;;;0.08;0.08;;;;;;;19.91;100.00;101613.69;5094157;28;20043;-51
2023/09/10 07:16:39;;;;;;;0.00;0.00;;;;;;;20.02;100.00;101609.31;5095284;28;20108;-50
2023/09/10 07:19:04;;;;;;;0.10;0.10;;;;;;;20.11;100.00;101605.00;5095145;28;20024;-45
2023/09/10 07:21:29;;;;;;;0.00;0.00;;;;;;;20.24;100.00;101606.75;5093681;28;20455;-51
2023/09/10 07:23:55;;;;;;;0.00;0.00;;;;;;;20.39;100.00;101611.16;5094710;28;20035;-50
2023/09/10 07:26:20;;;;;;;0.00;0.00;;;;;;;20.55;100.00;101618.16;5094697;28;20024;-49
2023/09/10 07:28:45;;;;;;;0.10;0.10;;;;;;;20.68;100.00;101612.91;5094033;28;20052;-47
2023/09/10 07:31:11;;;;;;;0.00;0.00;;;;;;;20.76;100.00;101610.31;5094751;28;20056;-50
2023/09/10 07:33:36;;;;;;;0.10;0.10;;;;;;;20.88;100.00;101610.31;5093546;28;20028;-50
2023/09/10 07:36:01;;;;;;;0.00;0.00;;;;;;;21.02;100.00;101612.91;5094632;28;20031;-51
2023/09/10 07:38:27;;;;;;;0.00;0.00;;;;;;;21.12;100.00;101612.03;5094223;28;20043;-51
2023/09/10 07:40:52;;;;;;;0.00;0.00;;;;;;;21.26;100.00;101611.97;5093534;28;20136;-50
2023/09/10 07:43:17;;;;;;;0.00;0.00;;;;;;;21.41;100.00;101612.78;5094254;28;20047;-50
2023/09/10 07:45:44;;;;;;;0.00;0.00;;;;;;;21.50;100.00;101612.78;5094533;28;20539;-51
2023/09/10 07:48:11;;;;;;;0.00;0.00;;;;;;;21.65;100.00;101615.38;5093512;28;20102;-50
2023/09/10 07:50:37;;;;;;;0.00;0.00;;;;;;;21.79;100.00;101617.06;5094319;28;20089;-50
2023/09/10 07:53:02;;;;;;;0.00;0.00;;;;;;;21.92;100.00;101613.47;5094099;28;20111;-46
2023/09/10 07:55:27;;;;;;;0.00;0.00;;;;;;;22.00;100.00;101621.31;5093152;28;20101;-51
2023/09/10 07:57:53;;;;;;;0.00;0.00;;;;;;;22.17;100.00;101614.22;5094411;28;20024;-52
2023/09/10 08:00:20;;;;;;;0.00;0.00;;;;;;;22.31;100.00;101615.88;5093785;28;20505;-50
2023/09/10 08:02:45;;;;;;;0.00;0.00;;;;;;;22.37;100.00;101618.50;5093368;28;20028;-49
2023/09/10 08:05:11;;;;;;;0.00;0.00;;;;;;;22.50;100.00;101627.16;5094198;28;20021;-50
2023/09/10 08:07:36;;;;;;;0.00;0.00;;;;;;;22.60;100.00;101628.81;5093792;28;20046;-49
2023/09/10 08:10:02;;;;;;;0.10;0.00;;;;;;;22.76;100.00;101637.47;5093412;28;20027;-49
2023/09/10 08:12:27;;;;;;;0.00;0.00;;;;;;;22.90;100.00;101637.31;5093693;28;20055;-50
2023/09/10 08:14:53;;;;;;;0.00;0.00;;;;;;;23.07;100.00;101644.19;5094039;28;20142;-51
2023/09/10 08:17:18;;;;;;;0.00;0.00;;;;;;;23.24;100.00;101642.28;5092899;28;20573;-49
2023/09/10 08:19:43;;;;;;;0.00;0.00;;;;;;;23.32;100.00;101635.19;5093876;28;20046;-51
2023/09/10 08:22:09;;;;;;;0.00;0.00;;;;;;;23.41;100.00;101641.22;5093854;28;20043;-51
2023/09/10 08:24:34;;;;;;;0.00;0.00;;;;;;;23.60;100.00;101626.97;5092886;28;20046;-47
2023/09/10 08:27:03;;;;;;;0.00;0.00;;;;;;;23.67;100.00;101626.00;5093727;28;20069;-50
2023/09/10 08:29:29;;;;;;;0.00;0.00;;;;;;;23.80;100.00;101628.47;5093620;28;20103;-50
2023/09/10 08:31:55;;;;;;;0.00;0.00;;;;;;;23.90;100.00;101627.50;5092747;28;20118;-50
2023/09/10 08:34:21;;;;;;;0.00;0.00;;;;;;;24.05;100.00;101625.53;5093450;28;20028;-50
2023/09/10 08:36:46;;;;;;;0.00;0.00;;;;;;;24.20;100.00;101622.69;5093481;28;20027;-50
2023/09/10 08:39:11;;;;;;;0.00;0.00;;;;;;;24.39;100.00;101619.75;5092548;28;20020;-46
2023/09/10 08:41:46;;;;;;;0.00;0.00;;;;;;;24.60;100.00;101624.69;5093568;28;20107;-50
2023/09/10 08:44:17;;;;;;;0.00;0.00;;;;;;;24.64;99.56;101622.91;5092340;28;20028;-46
2023/09/10 08:46:44;;;;;;;0.00;0.00;;;;;;;24.80;100.00;101624.38;5093388;28;20479;-46
2023/09/10 08:49:13;;;;;;;0.00;0.00;;;;;;;24.98;100.00;101624.94;5093172;28;20055;-46
2023/09/10 08:51:39;;;;;;;0.00;0.00;;;;;;;25.14;98.42;101630.81;5091682;28;20367;-50
2023/09/10 08:54:06;;;;;;;0.00;0.00;;;;;;;25.26;98.00;101619.16;5093450;28;20471;-47
2023/09/10 08:56:31;;;;;;;0.00;0.00;;;;;;;25.51;98.04;101623.97;5092790;28;20423;-47
2023/09/10 08:58:58;;;;;;;0.00;0.00;;;;;;;25.73;97.61;101624.38;5092272;28;20031;-50
2023/09/10 09:01:24;;;;;;;0.00;0.00;;;;;;;25.84;92.64;101626.78;5092720;28;20429;-49
2023/09/10 09:03:49;;;;;;;0.00;0.00;;;;;;;26.01;92.35;101631.69;5092994;28;20467;-47
2023/09/10 09:06:15;;;;;;;0.05;0.00;;;;;;;26.04;89.24;101631.63;5092141;28;20032;-46
2023/09/10 09:08:47;;;;;;;0.00;0.00;;;;;;;26.16;90.11;101633.13;5093161;28;20016;-47
2023/09/10 09:11:14;;;;;;;0.00;0.00;;;;;;;26.24;90.51;101631.19;5092770;28;20028;-48
2023/09/10 09:13:44;;;;;;;0.00;0.00;;;;;;;26.28;87.87;101633.72;5092239;28;20103;-47
2023/09/10 09:16:11;;;;;;;0.00;0.00;;;;;;;26.36;88.18;101627.38;5092924;28;20024;-46
2023/09/10 09:18:37;;;;;;;0.00;0.00;;;;;;;26.46;86.73;101627.13;5092705;28;20024;-46
2023/09/10 09:21:11;;;;;;;0.00;0.00;;;;;;;26.55;87.84;101626.03;5092081;28;20368;-48
2023/09/10 09:23:45;;;;;;;0.00;0.00;;;;;;;27.01;86.87;101624.00;5092972;28;20016;-46
2023/09/10 09:26:12;;;;;;;0.00;0.00;;;;;;;27.05;85.50;101635.34;5092076;28;20027;-46
2023/09/10 09:28:38;;;;;;;0.00;0.00;;;;;;;27.34;85.45;101625.75;5093041;28;20028;-46
2023/09/10 09:31:10;;;;;;;0.00;0.00;;;;;;;27.33;82.87;101624.88;5092679;28;20482;-47
2023/09/10 09:33:38;;;;;;;0.00;0.00;;;;;;;27.60;81.15;101622.38;5091677;28;20028;-47
2023/09/10 09:36:07;;;;;;;0.00;0.00;;;;;;;27.55;78.97;101627.81;5092834;28;20031;-50
2023/09/10 09:38:33;;;;;;;0.00;0.00;;;;;;;27.70;79.74;101618.53;5092278;28;20039;-52
2023/09/10 09:41:02;;;;;;;0.00;0.00;;;;;;;28.35;80.12;101627.13;5092007;28;20028;-46
2023/09/10 09:43:27;;;;;;;0.00;0.00;;;;;;;28.53;75.93;101623.00;5092334;28;20028;-46
2023/09/10 09:45:52;;;;;;;0.00;0.00;;;;;;;29.02;72.54;101622.25;5092898;28;20103;-46
2023/09/10 09:48:18;;;;;;;0.00;0.00;;;;;;;28.98;73.99;101616.19;5091690;28;20319;-46
2023/09/10 09:50:45;;;;;;;0.00;0.00;;;;;;;29.68;68.92;101616.31;5093238;28;20127;-45
2023/09/10 09:53:11;;;;;;;0.00;0.00;;;;;;;30.04;65.28;101614.00;5112850;28;20030;-47
2023/09/10 09:55:38;;;;;;;0.00;0.00;;;;;;;30.37;63.30;101621.56;5109432;28;20048;-49
2023/09/10 09:58:04;;;;;;;0.00;0.00;;;;;;;30.85;61.29;101622.22;5097312;28;20031;-50
2023/09/10 10:00:32;;;;;;;0.00;0.00;;;;;;;30.94;59.17;101620.09;5092475;28;20044;-46
2023/09/10 10:02:58;;;;;;;0.00;0.00;;;;;;;31.55;59.48;101612.94;5092763;28;20028;-46
2023/09/10 10:05:23;;;;;;;0.00;0.00;;;;;;;32.44;58.23;101605.97;5096090;28;20028;-52
2023/09/10 10:07:50;;;;;;;0.00;0.00;;;;;;;32.40;53.43;101608.88;5095277;27;20028;-49
2023/09/10 10:10:15;;;;;;;0.00;0.00;;;;;;;32.26;53.86;101607.75;5095083;28;20024;-51
2023/09/10 10:12:44;;;;;;;0.00;0.00;;;;;;;32.77;52.46;101613.22;5099921;28;20034;-47
2023/09/10 10:15:10;;;;;;;0.00;0.00;;;;;;;32.74;51.39;101610.69;5116747;28;20092;-50
2023/09/10 10:17:36;;;;;;;0.00;0.00;;;;;;;32.99;51.51;101606.75;5115600;28;20020;-52
2023/09/10 10:20:04;;;;;;;0.00;0.00;;;;;;;33.16;49.40;101609.38;5116620;28;20039;-48
2023/09/10 10:22:31;;;;;;;0.00;0.00;;;;;;;33.39;49.85;101606.41;5115310;28;20385;-48
2023/09/10 10:24:56;;;;;;;0.00;0.00;;;;;;;33.89;47.48;101601.88;5116261;28;20027;-46
2023/09/10 10:27:24;;;;;;;0.00;0.00;;;;;;;34.05;46.39;101602.72;5116287;28;20111;-48
2023/09/10 10:29:49;;;;;;;0.00;0.00;;;;;;;34.40;43.39;101607.00;5115434;28;20370;-48
2023/09/10 10:32:39;;;;;;;0.03;0.00;;;;;;;33.75;45.55;101600.84;5115962;28;20030;-51
2023/09/10 10:35:06;;;;;;;0.00;0.00;;;;;;;33.57;46.29;101601.84;5105832;28;20067;-47
2023/09/10 10:37:52;;;;;;;0.00;0.00;;;;;;;34.09;46.53;101598.91;5114995;28;20028;-50
2023/09/10 10:40:27;;;;;;;0.00;0.00;;;;;;;34.60;44.66;101597.75;5115992;27;20095;-51
2023/09/10 10:43:11;;;;;;;0.00;0.00;;;;;;;34.56;40.33;101589.03;5116207;28;20080;-47
2023/09/10 10:45:38;;;;;;;0.00;0.00;;;;;;;34.40;40.02;101599.81;5115459;28;20027;-48
2023/09/10 10:48:09;;;;;;;0.00;0.00;;;;;;;34.34;40.20;101592.16;5115952;28;20023;-49
2023/09/10 10:50:38;;;;;;;0.00;0.00;;;;;;;34.09;40.84;101593.56;5115085;28;20023;-48
2023/09/10 10:53:19;;;;;;;0.00;0.00;;;;;;;34.82;40.38;101586.59;5115926;28;20119;-51
2023/09/10 10:55:47;;;;;;;0.00;0.00;;;;;;;34.98;38.44;101591.03;5115700;28;20080;-51
2023/09/10 10:58:14;;;;;;;0.00;0.00;;;;;;;34.51;38.71;101593.81;5114746;27;20031;-50
2023/09/10 11:00:39;;;;;;;0.00;0.00;;;;;;;35.53;38.50;101584.00;5115769;27;20023;-51
2023/09/10 11:03:15;;;;;;;0.00;0.00;;;;;;;35.72;39.57;101589.88;5115914;28;20111;-48
2023/09/10 11:05:52;;;;;;;;;;;;;;;36.34;39.12;101582.28;5115268;28;20031;-50
2023/09/10 11:08:28;;;;;;;0.00;0.00;;;;;;;35.87;37.25;101590.75;5115328;28;19907;-50
2023/09/10 11:10:54;;;;;;;0.00;0.00;;;;;;;35.68;35.10;101583.00;5115398;28;20026;-52
2023/09/10 11:13:19;;;;;;;0.00;0.00;;;;;;;37.11;33.66;101576.97;5114563;28;20023;-51
2023/09/10 11:16:03;;;;;;;0.00;0.00;;;;;;;37.60;36.36;101574.34;5114622;28;20364;-50
2023/09/10 11:18:49;;;;;;;0.00;0.00;;;;;;;37.72;36.01;101576.16;5114954;28;20395;-51